createdAt,value
2017-07-09T00:00:49.871Z,17.40
2017-07-09T00:03:17.536Z,17.20
2017-07-09T00:05:45.069Z,17.10
2017-07-09T00:08:12.607Z,17.00
2017-07-09T00:10:40.949Z,17.00
2017-07-09T00:13:08.509Z,17.00
2017-07-09T00:15:36.068Z,16.90
2017-07-09T00:18:03.871Z,16.90
2017-07-09T00:20:37.879Z,16.70
2017-07-09T00:23:06.182Z,16.80
2017-07-09T00:25:33.781Z,16.80
2017-07-09T00:28:01.443Z,16.70
2017-07-09T00:30:28.984Z,16.80
2017-07-09T00:32:56.643Z,16.80
2017-07-09T00:35:24.175Z,16.70
2017-07-09T00:37:52.507Z,16.70
2017-07-09T00:40:20.070Z,16.70
2017-07-09T00:42:47.636Z,16.70
2017-07-09T00:45:15.194Z,16.70
2017-07-09T00:47:42.756Z,16.70
2017-07-09T00:50:10.290Z,16.60
2017-07-09T00:52:37.875Z,16.50
2017-07-09T00:55:29.155Z,16.40
2017-07-09T00:57:56.762Z,16.40
2017-07-09T01:00:24.319Z,16.40
2017-07-09T01:02:51.877Z,16.40
2017-07-09T01:05:19.407Z,16.30
2017-07-09T01:07:46.995Z,16.20
2017-07-09T01:10:14.560Z,16.10
2017-07-09T01:12:42.103Z,16.10
2017-07-09T01:15:09.652Z,16.00
2017-07-09T01:17:37.188Z,16.10
2017-07-09T01:20:04.798Z,16.00
2017-07-09T01:22:32.405Z,16.00
2017-07-09T01:25:00.739Z,16.00
2017-07-09T01:27:28.274Z,15.90
2017-07-09T01:29:55.859Z,15.90
2017-07-09T01:32:23.400Z,15.90
2017-07-09T01:34:50.975Z,15.90
2017-07-09T01:37:18.515Z,16.00
2017-07-09T01:39:46.051Z,16.00
2017-07-09T01:42:14.377Z,16.00
2017-07-09T01:44:42.039Z,16.00
2017-07-09T01:47:09.603Z,16.00
2017-07-09T01:49:37.262Z,16.10
2017-07-09T01:52:04.821Z,16.00
2017-07-09T01:54:32.375Z,16.00
2017-07-09T01:56:59.935Z,16.10
2017-07-09T01:59:27.506Z,16.00
2017-07-09T02:01:55.051Z,15.90
2017-07-09T02:04:22.613Z,15.90
2017-07-09T02:06:50.190Z,16.00
2017-07-09T02:09:17.747Z,16.00
2017-07-09T02:11:45.280Z,16.10
2017-07-09T02:14:12.841Z,16.10
2017-07-09T02:16:40.435Z,16.10
2017-07-09T02:19:08.000Z,16.10
2017-07-09T02:21:35.538Z,16.20
2017-07-09T02:24:03.110Z,16.20
2017-07-09T02:26:30.682Z,16.30
2017-07-09T02:28:58.225Z,16.20
2017-07-09T02:31:25.809Z,16.20
2017-07-09T02:33:53.359Z,16.20
2017-07-09T02:36:20.919Z,16.20
2017-07-09T02:38:48.476Z,16.30
2017-07-09T02:41:16.043Z,16.20
2017-07-09T02:43:43.574Z,16.20
2017-07-09T02:46:11.171Z,16.10
2017-07-09T02:48:38.722Z,16.20
2017-07-09T02:51:06.279Z,16.10
2017-07-09T02:53:33.842Z,16.20
2017-07-09T02:56:01.398Z,16.10
2017-07-09T02:58:28.948Z,16.20
2017-07-09T03:00:56.530Z,16.20
2017-07-09T03:03:24.091Z,16.20
2017-07-09T03:05:51.654Z,16.30
2017-07-09T03:08:19.198Z,16.10
2017-07-09T03:10:46.873Z,16.20
2017-07-09T03:13:14.431Z,16.20
2017-07-09T03:15:41.996Z,16.30
2017-07-09T03:18:09.551Z,16.20
2017-07-09T03:20:37.114Z,16.20
2017-07-09T03:23:04.650Z,16.30
2017-07-09T03:25:32.244Z,16.20
2017-07-09T03:27:59.793Z,16.00
2017-07-09T03:30:27.466Z,15.80
2017-07-09T03:32:55.016Z,15.80
2017-07-09T03:35:22.690Z,15.90
2017-07-09T03:37:50.227Z,15.90
2017-07-09T03:40:17.785Z,16.10
2017-07-09T03:42:45.322Z,16.10
2017-07-09T03:45:13.684Z,16.20
2017-07-09T03:47:42.031Z,16.30
2017-07-09T03:50:09.587Z,16.30
2017-07-09T03:52:37.151Z,16.20
2017-07-09T03:55:04.706Z,16.30
2017-07-09T03:57:32.267Z,16.10
2017-07-09T03:59:59.830Z,16.20
2017-07-09T04:02:28.215Z,16.40
2017-07-09T04:04:55.747Z,16.40
2017-07-09T04:07:23.278Z,16.30
2017-07-09T04:09:51.611Z,16.40
2017-07-09T04:12:19.271Z,16.40
2017-07-09T04:14:46.807Z,16.40
2017-07-09T04:17:14.399Z,16.40
2017-07-09T04:19:41.939Z,16.30
2017-07-09T04:22:09.499Z,16.20
2017-07-09T04:24:37.041Z,16.40
2017-07-09T04:27:04.607Z,16.30
2017-07-09T04:29:32.214Z,16.10
2017-07-09T04:31:59.767Z,16.00
2017-07-09T04:34:27.318Z,16.10
2017-07-09T04:36:54.979Z,16.20
2017-07-09T04:39:22.515Z,16.20
2017-07-09T04:41:50.070Z,16.40
2017-07-09T04:44:17.675Z,16.50
2017-07-09T04:46:45.334Z,16.70
2017-07-09T04:49:12.895Z,16.40
2017-07-09T04:51:40.456Z,16.30
2017-07-09T04:54:08.007Z,16.30
2017-07-09T04:56:35.671Z,16.40
2017-07-09T04:59:03.232Z,16.50
2017-07-09T05:01:30.895Z,16.50
2017-07-09T05:03:58.467Z,16.50
2017-07-09T05:06:26.118Z,16.70
2017-07-09T05:08:53.679Z,16.60
2017-07-09T05:11:21.246Z,16.60
2017-07-09T05:13:48.785Z,16.50
2017-07-09T05:16:16.361Z,16.40
2017-07-09T05:18:43.923Z,16.60
2017-07-09T05:21:11.492Z,16.80
2017-07-09T05:23:39.074Z,17.00
2017-07-09T05:26:06.779Z,17.10
2017-07-09T05:28:34.311Z,16.90
2017-07-09T05:31:02.654Z,17.00
2017-07-09T05:33:30.200Z,16.90
2017-07-09T05:35:57.742Z,16.70
2017-07-09T05:38:25.329Z,16.70
2017-07-09T05:40:52.902Z,16.70
2017-07-09T05:43:20.447Z,16.80
2017-07-09T05:45:48.010Z,16.80
2017-07-09T05:48:15.582Z,16.80
2017-07-09T05:50:43.126Z,16.90
2017-07-09T05:53:10.663Z,17.00
2017-07-09T05:55:38.200Z,16.90
2017-07-09T05:58:06.510Z,17.10
2017-07-09T06:00:34.343Z,17.10
2017-07-09T06:03:02.654Z,17.00
2017-07-09T06:05:30.196Z,17.00
2017-07-09T06:10:51.686Z,17.20
2017-07-09T06:13:19.219Z,17.20
2017-07-09T06:15:46.806Z,17.50
2017-07-09T06:18:14.352Z,17.90
2017-07-09T06:20:41.922Z,18.00
2017-07-09T06:23:09.553Z,17.90
2017-07-09T06:25:37.154Z,17.60
2017-07-09T06:28:04.694Z,17.50
2017-07-09T06:30:32.274Z,17.30
2017-07-09T06:32:59.936Z,17.50
2017-07-09T06:35:27.471Z,17.70
2017-07-09T06:37:55.050Z,17.70
2017-07-09T06:40:22.626Z,17.70
2017-07-09T06:42:50.183Z,17.80
2017-07-09T06:45:17.735Z,17.60
2017-07-09T06:47:45.294Z,17.50
2017-07-09T06:55:59.491Z,17.90
2017-07-09T06:58:27.151Z,17.90
2017-07-09T07:00:54.681Z,17.70
2017-07-09T07:03:22.273Z,17.70
2017-07-09T07:05:49.825Z,17.80
2017-07-09T07:08:17.385Z,18.50
2017-07-09T07:10:44.922Z,19.10
2017-07-09T07:13:12.519Z,19.10
2017-07-09T07:15:40.059Z,18.90
2017-07-09T07:18:07.643Z,18.20
2017-07-09T07:20:35.207Z,17.80
2017-07-09T07:23:02.866Z,17.90
2017-07-09T07:25:30.404Z,17.80
2017-07-09T07:27:57.989Z,17.80
2017-07-09T07:30:25.547Z,17.70
2017-07-09T07:32:53.109Z,17.70
2017-07-09T07:35:20.645Z,17.80
2017-07-09T07:37:48.231Z,17.80
2017-07-09T07:40:15.803Z,17.90
2017-07-09T07:42:43.447Z,17.90
2017-07-09T07:45:11.004Z,18.00
2017-07-09T07:47:38.544Z,18.00
2017-07-09T07:50:06.143Z,18.20
2017-07-09T07:52:33.703Z,18.40
2017-07-09T07:55:01.375Z,18.50
2017-07-09T08:03:16.539Z,17.90
2017-07-09T08:05:44.134Z,17.90
2017-07-09T08:08:12.094Z,18.00
2017-07-09T08:10:39.668Z,17.70
2017-07-09T08:13:07.235Z,18.00
2017-07-09T08:15:34.777Z,18.20
2017-07-09T08:18:02.347Z,18.50
2017-07-09T08:20:29.936Z,18.70
2017-07-09T08:22:57.483Z,18.80
2017-07-09T08:25:25.025Z,19.00
2017-07-09T08:27:52.587Z,19.50
2017-07-09T08:30:20.163Z,19.70
2017-07-09T08:32:47.708Z,19.40
2017-07-09T08:35:15.287Z,19.20
2017-07-09T08:37:42.839Z,19.20
2017-07-09T08:40:10.389Z,19.40
2017-07-09T08:42:37.958Z,19.20
2017-07-09T08:45:05.522Z,19.40
2017-07-09T08:47:33.082Z,19.40
2017-07-09T08:50:00.659Z,19.60
2017-07-09T08:52:28.226Z,19.60
2017-07-09T08:54:55.862Z,19.70
2017-07-09T08:57:24.047Z,19.60
2017-07-09T08:59:51.703Z,19.70
2017-07-09T09:02:19.271Z,19.70
2017-07-09T09:04:46.928Z,19.80
2017-07-09T09:07:14.492Z,20.10
2017-07-09T09:09:42.155Z,20.60
2017-07-09T09:12:09.727Z,20.90
2017-07-09T09:14:37.289Z,20.90
2017-07-09T09:17:04.962Z,21.20
2017-07-09T09:19:32.548Z,21.70
2017-07-09T09:22:00.887Z,22.60
2017-07-09T09:24:28.539Z,22.60
2017-07-09T09:26:56.079Z,22.90
2017-07-09T09:29:23.672Z,23.10
2017-07-09T09:31:51.238Z,22.90
2017-07-09T09:34:18.788Z,22.30
2017-07-09T09:36:46.345Z,22.50
2017-07-09T09:39:13.907Z,22.60
2017-07-09T09:41:41.470Z,22.50
2017-07-09T09:44:09.006Z,23.10
2017-07-09T09:46:36.579Z,23.30
2017-07-09T09:49:04.150Z,23.80
2017-07-09T09:51:31.682Z,24.20
2017-07-09T09:53:59.274Z,24.30
2017-07-09T09:56:26.831Z,24.20
2017-07-09T09:58:54.391Z,23.40
2017-07-09T10:01:22.053Z,23.30
2017-07-09T10:03:49.587Z,22.70
2017-07-09T10:06:17.182Z,22.70
2017-07-09T10:08:44.730Z,23.50
2017-07-09T10:11:12.295Z,23.80
2017-07-09T10:13:39.835Z,24.00
2017-07-09T10:16:07.395Z,24.50
2017-07-09T10:18:34.929Z,24.20
2017-07-09T10:21:03.278Z,24.00
2017-07-09T10:23:30.988Z,24.00
2017-07-09T10:25:58.574Z,23.50
2017-07-09T10:28:26.150Z,23.20
2017-07-09T10:30:53.803Z,23.40
2017-07-09T10:33:21.368Z,23.60
2017-07-09T10:35:48.922Z,24.20
2017-07-09T10:38:16.490Z,24.10
2017-07-09T10:40:44.024Z,24.00
2017-07-09T10:43:11.563Z,24.30
2017-07-09T10:45:39.275Z,24.30
2017-07-09T10:48:06.811Z,24.10
2017-07-09T10:50:34.396Z,23.60
2017-07-09T10:53:01.940Z,23.50
2017-07-09T10:55:29.514Z,23.40
2017-07-09T10:57:57.043Z,23.40
2017-07-09T11:00:24.579Z,23.60
2017-07-09T11:02:53.014Z,24.10
2017-07-09T11:05:20.574Z,24.00
2017-07-09T11:07:48.245Z,24.50
2017-07-09T11:10:15.804Z,24.50
2017-07-09T11:12:43.463Z,24.90
2017-07-09T11:15:11.010Z,25.00
2017-07-09T11:17:38.591Z,24.50
2017-07-09T11:20:06.132Z,24.30
2017-07-09T11:22:33.710Z,24.80
2017-07-09T11:25:01.270Z,24.50
2017-07-09T11:27:28.833Z,24.30
2017-07-09T11:29:56.394Z,24.30
2017-07-09T11:32:24.058Z,24.60
2017-07-09T11:34:51.611Z,24.40
2017-07-09T11:37:19.282Z,24.20
2017-07-09T11:39:46.813Z,24.30
2017-07-09T11:42:14.405Z,24.40
2017-07-09T11:44:41.944Z,23.90
2017-07-09T11:47:09.505Z,24.00
2017-07-09T11:49:37.051Z,24.00
2017-07-09T11:52:04.617Z,24.10
2017-07-09T11:54:32.207Z,24.40
2017-07-09T11:56:59.775Z,24.60
2017-07-09T11:59:27.335Z,24.60
2017-07-09T12:01:54.996Z,24.30
2017-07-09T12:04:22.547Z,24.70
2017-07-09T12:06:50.112Z,24.30
2017-07-09T12:09:17.675Z,24.00
2017-07-09T12:11:45.243Z,23.90
2017-07-09T12:14:12.882Z,23.80
2017-07-09T12:16:40.457Z,23.80
2017-07-09T12:19:08.019Z,23.90
2017-07-09T12:21:35.571Z,23.80
2017-07-09T12:24:03.251Z,23.60
2017-07-09T12:26:30.795Z,23.30
2017-07-09T12:28:58.461Z,23.80
2017-07-09T12:31:26.027Z,24.00
2017-07-09T12:33:53.596Z,24.30
2017-07-09T12:36:21.140Z,24.30
2017-07-09T12:38:48.820Z,24.20
2017-07-09T12:41:16.386Z,23.80
2017-07-09T12:43:43.920Z,24.40
2017-07-09T12:46:11.493Z,24.40
2017-07-09T12:48:39.152Z,24.40
2017-07-09T12:51:06.688Z,25.00
2017-07-09T12:53:34.219Z,24.80
2017-07-09T12:56:01.841Z,24.30
2017-07-09T12:58:29.393Z,24.50
2017-07-09T13:00:56.958Z,24.60
2017-07-09T13:03:24.516Z,24.90
2017-07-09T13:05:52.082Z,25.00
2017-07-09T13:08:19.644Z,24.90
2017-07-09T13:10:47.189Z,24.50
2017-07-09T13:13:14.763Z,24.60
2017-07-09T13:15:42.302Z,24.30
2017-07-09T13:18:09.885Z,24.70
2017-07-09T13:20:37.422Z,24.60
2017-07-09T13:23:05.006Z,25.10
2017-07-09T13:25:32.580Z,25.20
2017-07-09T13:28:00.119Z,25.00
2017-07-09T13:30:27.653Z,24.70
2017-07-09T13:32:55.247Z,24.80
2017-07-09T13:35:22.787Z,25.20
2017-07-09T13:37:50.374Z,25.20
2017-07-09T13:40:17.926Z,25.40
2017-07-09T13:42:45.487Z,24.90
2017-07-09T13:45:13.055Z,25.10
2017-07-09T13:47:40.616Z,25.20
2017-07-09T13:50:08.382Z,25.40
2017-07-09T13:52:35.936Z,25.30
2017-07-09T13:55:03.465Z,25.40
2017-07-09T13:57:31.062Z,25.90
2017-07-09T13:59:58.623Z,26.10
2017-07-09T14:02:26.180Z,26.20
2017-07-09T14:04:53.739Z,26.20
2017-07-09T14:07:21.314Z,25.80
2017-07-09T14:09:48.847Z,25.60
2017-07-09T14:12:16.442Z,25.50
2017-07-09T14:14:44.095Z,25.30
2017-07-09T14:17:11.674Z,24.90
2017-07-09T14:19:39.318Z,25.20
2017-07-09T14:22:06.874Z,25.40
2017-07-09T14:24:34.439Z,25.10
2017-07-09T14:27:01.985Z,25.00
2017-07-09T14:29:29.558Z,25.00
2017-07-09T14:31:57.121Z,25.20
2017-07-09T14:34:24.680Z,25.40
2017-07-09T14:36:52.231Z,25.20
2017-07-09T14:39:19.778Z,25.40
2017-07-09T14:41:47.355Z,25.80
2017-07-09T14:44:14.939Z,25.90
2017-07-09T14:46:42.577Z,26.10
2017-07-09T14:49:10.118Z,26.30
2017-07-09T14:51:37.711Z,26.70
2017-07-09T14:54:05.254Z,26.40
2017-07-09T14:56:32.827Z,25.90
2017-07-09T14:59:00.441Z,25.50
2017-07-09T15:01:28.758Z,25.50
2017-07-09T15:03:56.323Z,25.50
2017-07-09T15:06:23.854Z,25.30
2017-07-09T15:08:51.449Z,25.10
2017-07-09T15:11:19.109Z,25.00
2017-07-09T15:13:46.659Z,24.80
2017-07-09T15:16:14.234Z,24.60
2017-07-09T15:18:41.828Z,24.50
2017-07-09T15:21:09.367Z,25.00
2017-07-09T15:23:36.925Z,24.90
2017-07-09T15:26:04.465Z,25.30
2017-07-09T15:28:32.029Z,25.50
2017-07-09T15:30:59.579Z,25.20
2017-07-09T15:33:27.166Z,25.00
2017-07-09T15:35:54.707Z,24.80
2017-07-09T15:38:22.387Z,24.80
2017-07-09T15:40:49.925Z,24.50
2017-07-09T15:43:17.506Z,24.70
2017-07-09T15:45:45.057Z,24.70
2017-07-09T15:48:12.633Z,24.60
2017-07-09T15:50:40.391Z,24.70
2017-07-09T15:53:07.950Z,24.70
2017-07-09T15:55:35.515Z,24.50
2017-07-09T15:58:03.078Z,24.60
2017-07-09T16:00:30.732Z,24.50
2017-07-09T16:02:58.290Z,24.50
2017-07-09T16:05:25.955Z,24.50
2017-07-09T16:07:53.515Z,24.50
2017-07-09T16:10:21.097Z,24.20
2017-07-09T16:12:48.833Z,24.30
2017-07-09T16:15:16.502Z,24.30
2017-07-09T16:17:44.062Z,24.40
2017-07-09T16:20:11.639Z,24.30
2017-07-09T16:22:39.178Z,24.10
2017-07-09T16:25:06.719Z,24.10
2017-07-09T16:27:34.322Z,24.00
2017-07-09T16:30:01.877Z,24.10
2017-07-09T16:32:29.431Z,24.40
2017-07-09T16:34:56.971Z,24.60
2017-07-09T16:37:24.509Z,24.70
2017-07-09T16:39:52.835Z,24.30
2017-07-09T16:42:20.375Z,24.40
2017-07-09T16:44:47.911Z,24.30
2017-07-09T16:47:15.512Z,24.30
2017-07-09T16:49:43.074Z,24.50
2017-07-09T16:52:10.633Z,24.50
2017-07-09T16:54:38.219Z,24.40
2017-07-09T16:57:06.314Z,24.30
2017-07-09T16:59:34.664Z,24.00
2017-07-09T17:02:02.271Z,24.00
2017-07-09T17:04:29.879Z,23.90
2017-07-09T17:06:57.543Z,23.90
2017-07-09T17:09:25.089Z,23.90
2017-07-09T17:11:52.768Z,24.00
2017-07-09T17:14:20.313Z,24.10
2017-07-09T17:16:47.892Z,24.00
2017-07-09T17:19:15.551Z,23.90
2017-07-09T17:21:43.211Z,24.00
2017-07-09T17:24:10.761Z,23.90
2017-07-09T17:26:38.439Z,23.90
2017-07-09T17:29:06.230Z,23.80
2017-07-09T17:31:34.546Z,23.70
2017-07-09T17:34:02.138Z,23.70
2017-07-09T17:36:29.678Z,23.70
2017-07-09T17:38:57.263Z,23.50
2017-07-09T17:41:24.815Z,23.30
2017-07-09T17:43:52.348Z,23.20
2017-07-09T17:46:19.883Z,23.20
2017-07-09T17:48:48.195Z,23.20
2017-07-09T17:51:15.779Z,23.10
2017-07-09T17:53:43.442Z,23.00
2017-07-09T17:56:10.991Z,23.00
2017-07-09T17:58:38.551Z,23.00
2017-07-09T18:01:06.114Z,23.00
2017-07-09T18:03:33.783Z,23.10
2017-07-09T18:06:01.856Z,23.20
2017-07-09T18:08:29.425Z,23.10
2017-07-09T18:10:56.979Z,23.00
2017-07-09T18:13:24.548Z,22.90
2017-07-09T18:15:52.108Z,22.90
2017-07-09T18:18:19.710Z,22.80
2017-07-09T18:20:48.046Z,22.70
2017-07-09T18:23:28.263Z,22.80
2017-07-09T18:25:55.864Z,22.70
2017-07-09T18:28:23.523Z,22.70
2017-07-09T18:30:51.098Z,22.60
2017-07-09T18:33:18.674Z,22.50
2017-07-09T18:35:46.218Z,22.40
2017-07-09T18:38:13.792Z,22.50
2017-07-09T18:40:41.339Z,22.40
2017-07-09T18:43:08.909Z,22.40
2017-07-09T18:45:36.455Z,22.30
2017-07-09T18:48:04.119Z,22.10
2017-07-09T18:50:31.672Z,22.10
2017-07-09T18:52:59.214Z,22.00
2017-07-09T18:55:26.758Z,22.00
2017-07-09T18:57:54.308Z,22.00
2017-07-09T19:00:22.647Z,21.80
2017-07-09T19:02:50.208Z,21.80
2017-07-09T19:05:18.064Z,21.60
2017-07-09T19:07:45.751Z,21.60
2017-07-09T19:10:13.289Z,21.60
2017-07-09T19:12:40.829Z,21.60
2017-07-09T19:15:08.416Z,21.60
2017-07-09T19:17:35.971Z,21.40
2017-07-09T19:20:03.541Z,21.30
2017-07-09T19:22:31.099Z,21.30
2017-07-09T19:24:58.655Z,21.20
2017-07-09T19:27:26.217Z,21.20
2017-07-09T19:29:53.762Z,21.00
2017-07-09T19:32:21.312Z,21.00
2017-07-09T19:34:48.848Z,21.00
2017-07-09T19:37:17.186Z,20.90
2017-07-09T19:39:44.935Z,20.90
2017-07-09T19:42:12.511Z,20.80
2017-07-09T19:44:40.066Z,20.80
2017-07-09T19:47:07.611Z,20.70
2017-07-09T19:49:35.195Z,20.70
2017-07-09T19:52:02.746Z,20.70
2017-07-09T19:54:47.099Z,20.60
2017-07-09T19:57:14.635Z,20.70
2017-07-09T19:59:42.225Z,20.70
2017-07-09T20:02:09.882Z,20.50
2017-07-09T20:04:37.460Z,20.50
2017-07-09T20:07:05.127Z,20.50
2017-07-09T20:09:32.983Z,20.40
2017-07-09T20:12:00.534Z,20.30
2017-07-09T20:14:28.206Z,20.30
2017-07-09T20:16:55.750Z,20.30
2017-07-09T20:19:23.290Z,20.20
2017-07-09T20:21:50.850Z,20.20
2017-07-09T20:24:18.391Z,20.20
2017-07-09T20:26:46.694Z,20.10
2017-07-09T20:29:14.242Z,20.10
2017-07-09T20:31:41.843Z,20.10
2017-07-09T20:34:09.398Z,20.20
2017-07-09T20:36:36.966Z,20.10
2017-07-09T20:39:04.510Z,20.10
2017-07-09T20:41:32.075Z,20.00
2017-07-09T20:43:59.615Z,19.90
2017-07-09T20:46:27.214Z,19.90
2017-07-09T20:48:54.788Z,20.00
2017-07-09T20:51:22.433Z,20.00
2017-07-09T20:53:49.994Z,20.00
2017-07-09T20:56:17.552Z,20.00
2017-07-09T20:58:45.115Z,20.00
2017-07-09T21:01:12.654Z,19.90
2017-07-09T21:03:40.247Z,19.70
2017-07-09T21:06:07.781Z,19.70
2017-07-09T21:08:35.350Z,19.60
2017-07-09T21:11:02.895Z,19.60
2017-07-09T21:13:30.432Z,19.60
2017-07-09T21:15:58.755Z,19.40
2017-07-09T21:18:26.315Z,19.40
2017-07-09T21:20:53.862Z,19.40
2017-07-09T21:23:21.516Z,19.40
2017-07-09T21:25:49.116Z,19.50
2017-07-09T21:28:16.667Z,19.50
2017-07-09T21:30:44.227Z,19.50
2017-07-09T21:33:11.777Z,19.40
2017-07-09T21:35:39.451Z,19.30
2017-07-09T21:38:07.018Z,19.30
2017-07-09T21:40:34.595Z,19.20
2017-07-09T21:43:02.252Z,19.20
2017-07-09T21:45:29.787Z,19.30
2017-07-09T21:47:57.367Z,19.20
2017-07-09T21:50:25.019Z,19.10
2017-07-09T21:52:52.567Z,19.10
2017-07-09T21:55:20.138Z,19.20
2017-07-09T21:57:47.687Z,19.10
2017-07-09T22:00:15.263Z,19.10
2017-07-09T22:02:42.809Z,19.00
2017-07-09T22:05:10.387Z,19.00
2017-07-09T22:07:38.056Z,19.00
2017-07-09T22:10:05.707Z,19.00
2017-07-09T22:12:33.254Z,18.80
2017-07-09T22:15:00.798Z,18.80
2017-07-09T22:17:28.340Z,18.90
2017-07-09T22:19:56.670Z,18.90
2017-07-09T22:22:24.208Z,18.90
2017-07-09T22:24:51.783Z,18.80
2017-07-09T22:30:12.795Z,18.80
2017-07-09T22:32:40.343Z,18.80
2017-07-09T22:35:07.939Z,18.80
2017-07-09T22:37:35.487Z,18.80
2017-07-09T22:40:03.070Z,18.90
2017-07-09T22:42:30.734Z,18.90
2017-07-09T22:44:58.275Z,19.00
2017-07-09T22:47:25.956Z,18.90
2017-07-09T22:49:53.619Z,18.90
2017-07-09T22:52:21.278Z,18.90
2017-07-09T22:54:48.839Z,18.90
2017-07-09T22:57:16.508Z,18.90
2017-07-09T22:59:44.168Z,18.90
2017-07-09T23:02:11.827Z,18.90
2017-07-09T23:04:39.376Z,18.90
2017-07-09T23:07:07.056Z,18.80
2017-07-09T23:09:34.719Z,18.90
2017-07-09T23:12:02.292Z,18.80
2017-07-09T23:14:29.952Z,18.80
2017-07-09T23:16:57.615Z,18.90
2017-07-09T23:19:25.268Z,18.90
2017-07-09T23:21:52.927Z,19.00
2017-07-09T23:24:20.492Z,19.00
2017-07-09T23:29:42.443Z,18.90
2017-07-09T23:35:03.268Z,18.90
2017-07-09T23:37:30.819Z,18.90
2017-07-09T23:39:58.370Z,19.00
2017-07-09T23:42:25.920Z,18.90
2017-07-09T23:44:53.516Z,18.90
2017-07-09T23:47:21.060Z,18.90
2017-07-09T23:49:48.632Z,18.90
2017-07-09T23:52:16.195Z,18.80
2017-07-09T23:54:43.734Z,18.90
2017-07-09T23:57:11.296Z,18.90
2017-07-09T23:59:38.847Z,18.80
